createdAt,value
2023-05-05T00:00:15.712Z,55.89
2023-05-05T00:01:49.063Z,55.82
2023-05-05T00:03:11.073Z,55.50
2023-05-05T00:04:32.546Z,55.22
2023-05-05T00:05:57.521Z,55.01
2023-05-05T00:07:19.673Z,54.97
2023-05-05T00:08:41.983Z,54.97
2023-05-05T00:10:06.620Z,55.64
2023-05-05T00:11:31.096Z,55.90
2023-05-05T00:12:54.935Z,55.50
2023-05-05T00:14:16.574Z,55.04
2023-05-05T00:15:38.213Z,54.98
2023-05-05T00:17:01.997Z,55.18
2023-05-05T00:18:23.821Z,55.80
2023-05-05T00:19:45.549Z,55.99
2023-05-05T00:21:09.559Z,55.90
2023-05-05T00:22:31.379Z,56.22
2023-05-05T00:24:00.800Z,56.12
2023-05-05T00:25:25.096Z,56.14
2023-05-05T00:26:46.375Z,55.84
2023-05-05T00:28:08.464Z,55.56
2023-05-05T00:29:32.709Z,55.82
2023-05-05T00:31:02.295Z,56.11
2023-05-05T00:32:23.798Z,56.62
2023-05-05T00:33:45.358Z,56.23
2023-05-05T00:35:14.574Z,56.02
2023-05-05T00:36:38.750Z,56.02
2023-05-05T00:38:17.060Z,55.95
2023-05-05T00:39:48.797Z,56.63
2023-05-05T00:41:11.067Z,56.47
2023-05-05T00:42:34.893Z,56.14
2023-05-05T00:43:56.648Z,56.21
2023-05-05T00:45:26.082Z,55.89
2023-05-05T00:46:47.750Z,55.98
2023-05-05T00:48:11.887Z,56.17
2023-05-05T00:49:34.168Z,56.19
2023-05-05T00:50:55.888Z,56.76
2023-05-05T00:52:19.886Z,56.38
2023-05-05T00:53:43.014Z,56.41
2023-05-05T00:55:12.566Z,56.45
2023-05-05T00:56:34.380Z,56.68
2023-05-05T00:57:58.380Z,56.38
2023-05-05T00:59:32.063Z,55.98
2023-05-05T01:00:56.548Z,56.21
2023-05-05T01:02:25.982Z,56.46
2023-05-05T01:03:59.669Z,57.15
2023-05-05T01:05:29.240Z,56.92
2023-05-05T01:07:01.033Z,56.55
2023-05-05T01:08:22.724Z,56.72
2023-05-05T01:09:44.498Z,57.24
2023-05-05T01:11:08.255Z,56.71
2023-05-05T01:12:41.907Z,57.10
2023-05-05T01:14:06.333Z,57.33
2023-05-05T01:15:39.638Z,57.75
2023-05-05T01:17:13.959Z,58.24
2023-05-05T01:18:35.721Z,57.75
2023-05-05T01:20:00.138Z,57.63
2023-05-05T01:21:23.375Z,57.20
2023-05-05T01:22:45.291Z,57.29
2023-05-05T01:24:07.781Z,57.21
2023-05-05T01:25:31.666Z,57.51
2023-05-05T01:26:55.857Z,57.64
2023-05-05T01:28:17.554Z,57.47
2023-05-05T01:29:51.453Z,58.06
2023-05-05T01:31:13.321Z,58.47
2023-05-05T01:32:37.656Z,58.30
2023-05-05T01:34:11.186Z,58.38
2023-05-05T01:35:33.250Z,58.30
2023-05-05T01:37:04.678Z,58.56
2023-05-05T01:38:29.236Z,59.19
2023-05-05T01:39:50.783Z,60.11
2023-05-05T01:41:12.899Z,58.90
2023-05-05T01:42:37.513Z,59.57
2023-05-05T01:44:01.687Z,59.21
2023-05-05T01:45:23.535Z,59.26
2023-05-05T01:46:47.306Z,59.12
2023-05-05T01:48:09.412Z,59.17
2023-05-05T01:49:33.384Z,59.68
2023-05-05T01:50:55.295Z,59.44
2023-05-05T01:52:18.930Z,60.35
2023-05-05T01:53:41.447Z,59.78
2023-05-05T01:55:04.577Z,60.68
2023-05-05T01:56:26.214Z,60.86
2023-05-05T01:57:56.892Z,60.68
2023-05-05T01:59:30.078Z,60.92
2023-05-05T02:01:03.930Z,60.90
2023-05-05T02:02:32.781Z,60.44
2023-05-05T02:03:57.869Z,60.22
2023-05-05T02:05:21.910Z,60.61
2023-05-05T02:06:51.708Z,61.78
2023-05-05T02:08:16.077Z,60.35
2023-05-05T02:09:38.097Z,60.36
2023-05-05T02:11:06.966Z,60.24
2023-05-05T02:12:28.819Z,60.17
2023-05-05T02:13:50.473Z,60.81
2023-05-05T02:15:11.872Z,60.39
2023-05-05T02:16:33.657Z,60.63
2023-05-05T02:17:57.855Z,61.01
2023-05-05T02:19:19.749Z,60.74
2023-05-05T02:20:43.220Z,60.77
2023-05-05T02:22:05.866Z,61.04
2023-05-05T02:23:28.202Z,60.18
2023-05-05T02:24:49.898Z,60.28
2023-05-05T02:26:12.204Z,60.44
2023-05-05T02:27:34.301Z,60.35
2023-05-05T02:28:56.263Z,60.85
2023-05-05T02:30:18.057Z,61.28
2023-05-05T02:31:39.738Z,61.91
2023-05-05T02:33:03.887Z,61.74
2023-05-05T02:34:28.084Z,61.26
2023-05-05T02:35:49.467Z,61.14
2023-05-05T02:37:12.006Z,60.89
2023-05-05T02:38:36.879Z,61.10
2023-05-05T02:39:59.128Z,61.44
2023-05-05T02:41:24.023Z,62.13
2023-05-05T02:42:46.389Z,62.56
2023-05-05T02:44:08.978Z,62.29
2023-05-05T02:45:31.323Z,59.18
2023-05-05T02:46:57.559Z,55.05
2023-05-05T02:48:21.383Z,53.61
2023-05-05T02:49:43.539Z,53.58
2023-05-05T02:51:07.829Z,53.88
2023-05-05T02:52:33.726Z,54.71
2023-05-05T02:53:55.766Z,55.62
2023-05-05T02:55:18.375Z,56.37
2023-05-05T02:56:42.680Z,57.15
2023-05-05T02:58:04.332Z,57.29
2023-05-05T02:59:27.257Z,57.83
2023-05-05T03:00:49.486Z,58.07
2023-05-05T03:02:15.040Z,58.11
2023-05-05T03:03:37.108Z,58.15
2023-05-05T03:04:58.932Z,58.81
2023-05-05T03:06:21.542Z,59.22
2023-05-05T03:07:43.553Z,59.21
2023-05-05T03:09:06.243Z,59.15
2023-05-05T03:10:35.757Z,59.73
2023-05-05T03:11:59.619Z,59.95
2023-05-05T03:13:21.802Z,60.10
2023-05-05T03:14:43.448Z,60.14
2023-05-05T03:16:06.988Z,60.84
2023-05-05T03:17:28.695Z,60.91
2023-05-05T03:18:53.859Z,60.95
2023-05-05T03:20:15.474Z,61.22
2023-05-05T03:21:38.563Z,61.09
2023-05-05T03:23:03.024Z,61.42
2023-05-05T03:24:24.604Z,61.69
2023-05-05T03:25:52.627Z,61.97
2023-05-05T03:27:26.944Z,61.74
2023-05-05T03:28:48.340Z,61.66
2023-05-05T03:30:14.576Z,61.88
2023-05-05T03:31:41.742Z,62.12
2023-05-05T03:33:22.952Z,60.96
2023-05-05T03:34:45.088Z,60.67
2023-05-05T03:36:08.028Z,60.48
2023-05-05T03:37:31.595Z,60.42
2023-05-05T03:38:53.320Z,60.27
2023-05-05T03:40:17.607Z,60.25
2023-05-05T03:41:39.263Z,60.02
2023-05-05T03:43:03.917Z,60.22
2023-05-05T03:44:26.379Z,60.28
2023-05-05T03:45:48.061Z,60.64
2023-05-05T03:47:10.135Z,60.96
2023-05-05T03:48:39.735Z,60.55
2023-05-05T03:50:02.260Z,60.33
2023-05-05T03:51:24.223Z,60.63
2023-05-05T03:52:46.043Z,60.47
2023-05-05T03:54:17.641Z,60.33
2023-05-05T03:55:42.049Z,60.15
2023-05-05T03:57:13.683Z,60.09
2023-05-05T03:58:36.040Z,60.11
2023-05-05T04:00:00.322Z,59.93
2023-05-05T04:01:23.378Z,59.93
2023-05-05T04:02:45.338Z,60.03
2023-05-05T04:04:10.292Z,60.39
2023-05-05T04:05:32.276Z,60.19
2023-05-05T04:06:53.817Z,60.35
2023-05-05T04:08:22.604Z,60.14
2023-05-05T04:09:44.733Z,59.49
2023-05-05T04:11:09.560Z,59.34
2023-05-05T04:12:31.849Z,59.71
2023-05-05T04:13:54.254Z,59.52
2023-05-05T04:15:18.674Z,59.52
2023-05-05T04:16:40.979Z,60.02
2023-05-05T04:18:03.458Z,59.68
2023-05-05T04:19:25.641Z,59.47
2023-05-05T04:20:56.855Z,59.24
2023-05-05T04:22:21.240Z,59.10
2023-05-05T04:23:53.487Z,58.97
2023-05-05T04:25:15.989Z,58.89
2023-05-05T04:26:38.560Z,58.85
2023-05-05T04:28:00.265Z,58.77
2023-05-05T04:29:29.812Z,58.60
2023-05-05T04:30:51.816Z,58.50
2023-05-05T04:32:13.564Z,58.43
2023-05-05T04:33:40.255Z,58.49
2023-05-05T04:35:02.202Z,58.53
2023-05-05T04:36:23.469Z,58.34
2023-05-05T04:37:54.865Z,58.38
2023-05-05T04:39:19.855Z,58.30
2023-05-05T04:40:41.740Z,58.35
2023-05-05T04:42:04.691Z,58.28
2023-05-05T04:43:26.192Z,58.25
2023-05-05T04:44:47.623Z,58.42
2023-05-05T04:46:10.047Z,57.53
2023-05-05T04:47:31.910Z,57.58
2023-05-05T04:48:53.887Z,57.86
2023-05-05T04:50:15.496Z,57.27
2023-05-05T04:51:37.039Z,57.54
2023-05-05T04:53:01.039Z,57.40
2023-05-05T04:54:23.208Z,57.62
2023-05-05T04:55:44.967Z,57.54
2023-05-05T04:57:07.404Z,57.73
2023-05-05T04:58:29.860Z,58.04
2023-05-05T04:59:54.036Z,58.14
2023-05-05T05:01:15.999Z,58.19
2023-05-05T05:02:38.222Z,58.06
2023-05-05T05:04:00.476Z,58.46
2023-05-05T05:05:30.294Z,57.87
2023-05-05T05:06:59.091Z,57.77
2023-05-05T05:08:23.168Z,57.93
2023-05-05T05:09:46.897Z,58.23
2023-05-05T05:11:13.873Z,58.28
2023-05-05T05:12:42.748Z,58.18
2023-05-05T05:14:08.060Z,57.70
2023-05-05T05:15:30.161Z,57.60
2023-05-05T05:16:52.502Z,57.62
2023-05-05T05:18:21.983Z,56.99
2023-05-05T05:19:44.156Z,57.32
2023-05-05T05:21:08.483Z,56.65
2023-05-05T05:22:30.429Z,56.75
2023-05-05T05:24:03.644Z,56.51
2023-05-05T05:25:33.095Z,56.84
2023-05-05T05:26:57.131Z,56.86
2023-05-05T05:28:26.611Z,57.33
2023-05-05T05:29:59.124Z,57.54
2023-05-05T05:31:20.809Z,57.39
2023-05-05T05:32:45.376Z,57.85
2023-05-05T05:34:07.594Z,58.15
2023-05-05T05:35:29.900Z,57.74
2023-05-05T05:36:51.316Z,57.64
2023-05-05T05:38:21.150Z,57.93
2023-05-05T05:39:46.009Z,57.81
2023-05-05T05:41:15.491Z,58.19
2023-05-05T05:42:44.686Z,58.59
2023-05-05T05:44:07.279Z,58.11
2023-05-05T05:45:29.239Z,58.51
2023-05-05T05:46:55.846Z,57.94
2023-05-05T05:48:18.114Z,57.96
2023-05-05T05:49:47.308Z,57.96
2023-05-05T05:51:11.672Z,58.38
2023-05-05T05:52:33.707Z,58.01
2023-05-05T05:53:58.949Z,58.08
2023-05-05T05:55:23.496Z,57.46
2023-05-05T05:56:45.580Z,57.83
2023-05-05T05:58:07.790Z,57.82
2023-05-05T05:59:32.084Z,57.22
2023-05-05T06:00:53.453Z,57.91
2023-05-05T06:02:28.332Z,57.99
2023-05-05T06:03:50.727Z,57.50
2023-05-05T06:05:13.088Z,57.18
2023-05-05T06:06:36.333Z,57.08
2023-05-05T06:07:58.220Z,56.78
2023-05-05T06:09:20.008Z,56.45
2023-05-05T06:10:42.311Z,56.35
2023-05-05T06:12:09.400Z,55.82
2023-05-05T06:13:31.134Z,55.34
2023-05-05T06:14:52.547Z,55.68
2023-05-05T06:16:14.597Z,56.26
2023-05-05T06:17:36.999Z,55.35
2023-05-05T06:18:58.574Z,54.83
2023-05-05T06:20:20.083Z,56.21
2023-05-05T06:21:44.121Z,54.08
2023-05-05T06:23:06.845Z,53.82
2023-05-05T06:24:32.025Z,53.53
2023-05-05T06:25:55.842Z,53.01
2023-05-05T06:27:17.470Z,52.82
2023-05-05T06:28:39.397Z,51.64
2023-05-05T06:30:01.261Z,51.87
2023-05-05T06:31:22.814Z,51.33
2023-05-05T06:32:44.639Z,51.07
2023-05-05T06:34:12.028Z,50.47
2023-05-05T06:35:34.475Z,50.17
2023-05-05T06:36:56.080Z,51.07
2023-05-05T06:38:24.773Z,49.96
2023-05-05T06:39:46.555Z,49.90
2023-05-05T06:41:08.283Z,48.68
2023-05-05T06:42:32.068Z,49.16
2023-05-05T06:43:53.858Z,49.45
2023-05-05T06:45:15.668Z,48.89
2023-05-05T06:46:37.500Z,49.34
2023-05-05T06:48:01.572Z,49.17
2023-05-05T06:49:23.184Z,48.86
2023-05-05T06:50:47.400Z,49.16
2023-05-05T06:52:09.506Z,48.64
2023-05-05T06:53:45.082Z,48.81
2023-05-05T06:55:07.093Z,46.86
2023-05-05T06:56:29.040Z,46.53
2023-05-05T06:57:58.274Z,46.25
2023-05-05T06:59:20.019Z,45.91
2023-05-05T07:00:42.310Z,45.69
2023-05-05T07:02:04.130Z,45.08
2023-05-05T07:03:25.957Z,44.99
2023-05-05T07:04:52.394Z,47.00
2023-05-05T07:06:14.543Z,46.58
2023-05-05T07:07:38.210Z,45.78
2023-05-05T07:09:02.695Z,44.32
2023-05-05T07:10:24.371Z,44.22
2023-05-05T07:11:46.667Z,45.68
2023-05-05T07:13:08.826Z,46.04
2023-05-05T07:14:30.671Z,46.95
2023-05-05T07:15:52.307Z,46.03
2023-05-05T07:17:14.213Z,45.78
2023-05-05T07:18:36.001Z,45.39
2023-05-05T07:19:57.945Z,42.52
2023-05-05T07:21:19.636Z,41.96
2023-05-05T07:22:41.508Z,43.80
2023-05-05T07:24:05.745Z,44.95
2023-05-05T07:25:27.857Z,44.76
2023-05-05T07:26:49.167Z,42.14
2023-05-05T07:28:11.452Z,42.27
2023-05-05T07:29:32.982Z,41.87
2023-05-05T07:30:54.735Z,41.32
2023-05-05T07:32:19.211Z,40.81
2023-05-05T07:33:41.266Z,40.96
2023-05-05T07:35:03.596Z,39.90
2023-05-05T07:36:25.277Z,40.42
2023-05-05T07:37:49.365Z,40.72
2023-05-05T07:39:21.815Z,39.25
2023-05-05T07:40:43.575Z,40.64
2023-05-05T07:42:06.751Z,40.16
2023-05-05T07:43:28.569Z,39.74
2023-05-05T07:44:50.352Z,39.62
2023-05-05T07:46:19.526Z,40.58
2023-05-05T07:47:41.697Z,41.29
2023-05-05T07:49:03.527Z,41.98
2023-05-05T07:50:28.068Z,40.62
2023-05-05T07:51:54.355Z,40.02
2023-05-05T07:53:18.330Z,39.87
2023-05-05T07:54:42.544Z,39.53
2023-05-05T07:56:04.297Z,39.04
2023-05-05T07:57:26.325Z,38.28
2023-05-05T07:58:48.088Z,38.52
2023-05-05T08:00:10.878Z,39.58
2023-05-05T08:01:38.226Z,38.74
2023-05-05T08:03:00.372Z,40.09
2023-05-05T08:04:22.780Z,39.37
2023-05-05T08:05:45.120Z,38.71
2023-05-05T08:07:08.064Z,38.48
2023-05-05T08:08:29.981Z,37.47
2023-05-05T08:09:51.647Z,37.75
2023-05-05T08:11:21.200Z,37.70
2023-05-05T08:12:45.273Z,37.17
2023-05-05T08:14:07.423Z,37.66
2023-05-05T08:15:33.925Z,37.56
2023-05-05T08:16:57.508Z,37.98
2023-05-05T08:18:21.357Z,37.62
2023-05-05T08:19:42.868Z,37.70
2023-05-05T08:21:16.289Z,37.22
2023-05-05T08:22:49.804Z,37.20
2023-05-05T08:24:13.788Z,39.37
2023-05-05T08:25:35.534Z,40.47
2023-05-05T08:26:56.761Z,41.14
2023-05-05T08:31:28.107Z,38.29
2023-05-05T08:32:52.172Z,37.32
2023-05-05T08:34:16.450Z,36.57
2023-05-05T08:35:38.311Z,36.76
2023-05-05T08:37:11.764Z,36.72
2023-05-05T08:38:33.401Z,37.84
2023-05-05T08:39:54.990Z,36.44
2023-05-05T08:41:16.784Z,37.34
2023-05-05T08:42:39.580Z,36.93
2023-05-05T08:44:06.670Z,36.38
2023-05-05T08:45:28.170Z,36.73
2023-05-05T08:46:50.195Z,36.38
2023-05-05T08:48:12.299Z,35.85
2023-05-05T08:49:36.179Z,35.67
2023-05-05T08:51:01.375Z,35.77
2023-05-05T08:52:24.586Z,36.21
2023-05-05T08:53:47.099Z,36.57
2023-05-05T08:55:16.772Z,37.09
2023-05-05T08:56:40.799Z,38.60
2023-05-05T08:58:06.145Z,37.46
2023-05-05T08:59:30.283Z,37.07
2023-05-05T09:00:51.692Z,38.49
2023-05-05T09:02:23.730Z,37.11
2023-05-05T09:03:47.509Z,38.38
2023-05-05T09:05:10.014Z,37.47
2023-05-05T09:06:33.734Z,36.34
2023-05-05T09:07:55.608Z,37.35
2023-05-05T09:09:36.804Z,39.30
2023-05-05T09:11:12.202Z,39.93
2023-05-05T09:12:36.388Z,38.52
2023-05-05T09:14:09.669Z,37.59
2023-05-05T09:15:34.278Z,39.16
2023-05-05T09:16:56.058Z,39.04
2023-05-05T09:18:20.185Z,40.39
2023-05-05T09:19:42.096Z,38.03
2023-05-05T09:21:03.788Z,39.22
2023-05-05T09:22:25.205Z,39.34
2023-05-05T09:23:47.137Z,38.76
2023-05-05T09:25:09.111Z,38.94
2023-05-05T09:26:30.971Z,39.58
2023-05-05T09:27:52.824Z,39.29
2023-05-05T09:29:14.912Z,39.24
2023-05-05T09:30:36.805Z,39.61
2023-05-05T09:31:58.825Z,38.72
2023-05-05T09:33:20.928Z,39.04
2023-05-05T09:34:42.879Z,37.91
2023-05-05T09:36:04.608Z,38.69
2023-05-05T09:37:26.445Z,38.58
2023-05-05T09:38:50.692Z,39.15
2023-05-05T09:40:12.892Z,35.90
2023-05-05T09:41:34.895Z,34.77
2023-05-05T09:42:56.042Z,34.94
2023-05-05T09:44:20.091Z,37.32
2023-05-05T09:45:44.108Z,38.32
2023-05-05T09:47:22.031Z,37.10
2023-05-05T09:48:49.986Z,38.79
2023-05-05T09:50:14.276Z,38.47
2023-05-05T09:51:38.595Z,37.08
2023-05-05T09:53:00.557Z,36.85
2023-05-05T09:54:27.574Z,37.19
2023-05-05T09:56:00.419Z,37.10
2023-05-05T09:57:27.067Z,37.37
2023-05-05T09:58:48.501Z,36.10
2023-05-05T10:00:11.423Z,39.90
2023-05-05T10:01:44.996Z,38.31
2023-05-05T10:03:11.771Z,37.02
2023-05-05T10:04:45.404Z,39.53
2023-05-05T10:06:07.927Z,37.29
2023-05-05T10:07:30.363Z,35.27
2023-05-05T10:08:54.073Z,34.15
2023-05-05T10:10:16.481Z,34.83
2023-05-05T10:11:38.266Z,34.22
2023-05-05T10:12:59.776Z,33.22
2023-05-05T10:14:29.343Z,34.31
2023-05-05T10:16:09.972Z,35.12
2023-05-05T10:17:33.014Z,34.02
2023-05-05T10:18:56.952Z,33.09
2023-05-05T10:20:18.649Z,33.85
2023-05-05T10:21:47.842Z,34.68
2023-05-05T10:23:17.332Z,33.73
2023-05-05T10:24:38.818Z,33.08
2023-05-05T10:26:08.239Z,33.14
2023-05-05T10:27:32.330Z,32.79
2023-05-05T10:29:06.021Z,33.11
2023-05-05T10:30:30.247Z,32.62
2023-05-05T10:31:52.070Z,33.08
2023-05-05T10:33:30.093Z,34.11
2023-05-05T10:34:53.124Z,36.08
2023-05-05T10:36:26.960Z,36.15
2023-05-05T10:37:50.949Z,36.29
2023-05-05T10:39:15.043Z,36.01
2023-05-05T10:40:39.453Z,35.98
2023-05-05T10:42:02.314Z,36.34
2023-05-05T10:43:24.453Z,38.32
2023-05-05T10:44:46.017Z,36.75
2023-05-05T10:46:07.816Z,36.14
2023-05-05T10:47:31.758Z,36.34
2023-05-05T10:49:01.015Z,36.02
2023-05-05T10:50:22.678Z,36.80
2023-05-05T10:51:44.343Z,36.27
2023-05-05T10:53:13.906Z,37.00
2023-05-05T10:54:37.821Z,36.26
2023-05-05T10:55:59.910Z,36.01
2023-05-05T10:57:22.047Z,37.36
2023-05-05T10:58:55.387Z,36.43
2023-05-05T11:00:28.418Z,35.26
2023-05-05T11:02:01.398Z,37.14
2023-05-05T11:03:23.890Z,36.87
2023-05-05T11:04:45.461Z,36.32
2023-05-05T11:06:12.442Z,37.98
2023-05-05T11:07:46.139Z,37.72
2023-05-05T11:09:15.215Z,38.00
2023-05-05T11:10:50.897Z,36.62
2023-05-05T11:12:13.820Z,35.69
2023-05-05T11:13:49.505Z,37.28
2023-05-05T11:15:11.317Z,36.05
2023-05-05T11:16:32.889Z,36.00
2023-05-05T11:18:08.964Z,35.39
2023-05-05T11:19:42.389Z,36.76
2023-05-05T11:21:04.345Z,35.90
2023-05-05T11:22:28.040Z,34.09
2023-05-05T11:24:00.955Z,33.64
2023-05-05T11:25:24.963Z,34.61
2023-05-05T11:26:46.861Z,34.19
2023-05-05T11:28:39.954Z,30.68
2023-05-05T11:30:33.097Z,29.65
2023-05-05T11:32:04.801Z,28.85
2023-05-05T11:33:45.532Z,29.14
2023-05-05T11:35:21.884Z,30.04
2023-05-05T11:36:57.124Z,30.72
2023-05-05T11:38:38.253Z,31.16
2023-05-05T11:39:59.902Z,32.90
2023-05-05T11:41:21.728Z,32.42
2023-05-05T11:42:50.845Z,32.93
2023-05-05T11:44:27.024Z,33.11
2023-05-05T11:46:00.312Z,33.46
2023-05-05T11:47:24.800Z,33.79
2023-05-05T11:48:58.209Z,33.34
2023-05-05T11:50:30.200Z,33.79
2023-05-05T11:51:56.065Z,33.30
2023-05-05T11:53:18.247Z,33.62
2023-05-05T11:54:41.793Z,35.37
2023-05-05T11:56:05.842Z,35.63
2023-05-05T11:57:27.731Z,35.06
2023-05-05T11:59:10.998Z,35.36
2023-05-05T12:00:42.308Z,36.64
2023-05-05T12:02:03.960Z,35.71
2023-05-05T12:03:38.062Z,35.50
2023-05-05T12:05:04.828Z,35.94
2023-05-05T12:06:46.020Z,36.23
2023-05-05T12:08:08.374Z,36.08
2023-05-05T12:09:29.775Z,37.08
2023-05-05T12:11:06.160Z,38.12
2023-05-05T12:12:28.594Z,37.62
2023-05-05T12:13:49.947Z,37.23
2023-05-05T12:15:14.405Z,36.30
2023-05-05T12:16:38.541Z,36.20
2023-05-05T12:18:02.385Z,38.04
2023-05-05T12:19:33.206Z,38.08
2023-05-05T12:20:54.607Z,38.29
2023-05-05T12:22:19.450Z,37.41
2023-05-05T12:23:41.361Z,38.05
2023-05-05T12:25:02.627Z,38.36
2023-05-05T12:26:25.236Z,37.92
2023-05-05T12:27:49.650Z,37.88
2023-05-05T12:29:11.702Z,37.95
2023-05-05T12:30:33.641Z,37.98
2023-05-05T12:31:57.967Z,37.89
2023-05-05T12:33:20.578Z,36.43
2023-05-05T12:34:57.245Z,37.11
2023-05-05T12:36:19.413Z,37.87
2023-05-05T12:37:43.485Z,37.97
2023-05-05T12:39:05.520Z,38.22
2023-05-05T12:40:27.085Z,38.09
2023-05-05T12:41:50.833Z,37.50
2023-05-05T12:43:17.482Z,38.14
2023-05-05T12:44:43.580Z,38.48
2023-05-05T12:46:07.676Z,39.24
2023-05-05T12:47:36.935Z,39.31
2023-05-05T12:49:12.510Z,38.15
2023-05-05T12:50:34.581Z,37.40
2023-05-05T12:51:56.458Z,36.56
2023-05-05T12:53:20.784Z,38.38
2023-05-05T12:54:44.758Z,37.54
2023-05-05T12:56:06.940Z,37.39
2023-05-05T12:57:30.836Z,37.95
2023-05-05T12:58:55.073Z,38.45
2023-05-05T13:00:18.063Z,38.59
2023-05-05T13:01:42.192Z,38.81
2023-05-05T13:03:06.545Z,39.21
2023-05-05T13:04:30.636Z,39.17
2023-05-05T13:05:52.099Z,38.61
2023-05-05T13:07:21.155Z,39.33
2023-05-05T13:08:54.580Z,38.95
2023-05-05T13:10:16.850Z,38.52
2023-05-05T13:11:38.763Z,38.76
2023-05-05T13:13:00.192Z,39.09
2023-05-05T13:14:25.050Z,40.81
2023-05-05T13:16:00.892Z,39.47
2023-05-05T13:17:34.707Z,39.07
2023-05-05T13:19:08.440Z,38.12
2023-05-05T13:20:29.969Z,37.63
2023-05-05T13:21:51.643Z,37.66
2023-05-05T13:23:14.028Z,37.70
2023-05-05T13:24:49.762Z,37.47
2023-05-05T13:26:13.597Z,37.59
2023-05-05T13:27:37.682Z,37.95
2023-05-05T13:28:59.508Z,37.61
2023-05-05T13:30:21.473Z,37.20
2023-05-05T13:31:50.578Z,37.38
2023-05-05T13:33:14.824Z,38.11
2023-05-05T13:34:39.284Z,37.98
2023-05-05T13:36:08.879Z,38.49
2023-05-05T13:37:30.634Z,37.87
2023-05-05T13:38:54.673Z,36.94
2023-05-05T13:40:18.930Z,36.72
2023-05-05T13:41:40.727Z,35.98
2023-05-05T13:43:14.141Z,36.32
2023-05-05T13:44:37.896Z,36.83
2023-05-05T13:46:08.700Z,36.75
2023-05-05T13:47:39.062Z,36.24
2023-05-05T13:49:12.677Z,36.13
2023-05-05T13:50:36.540Z,36.67
2023-05-05T13:51:58.529Z,35.93
2023-05-05T13:53:40.210Z,35.55
2023-05-05T13:55:01.750Z,36.19
2023-05-05T13:56:37.979Z,36.98
2023-05-05T13:58:02.020Z,36.44
2023-05-05T13:59:25.789Z,36.53
2023-05-05T14:00:55.227Z,36.65
2023-05-05T14:02:24.925Z,35.48
2023-05-05T14:04:13.858Z,34.70
2023-05-05T14:05:42.800Z,34.92
2023-05-05T14:07:04.809Z,33.79
2023-05-05T14:08:46.059Z,33.50
2023-05-05T14:10:08.072Z,32.92
2023-05-05T14:11:31.518Z,33.05
2023-05-05T14:12:53.391Z,33.19
2023-05-05T14:14:16.308Z,33.23
2023-05-05T14:15:39.927Z,33.09
2023-05-05T14:17:01.983Z,32.88
2023-05-05T14:18:24.015Z,32.73
2023-05-05T14:19:45.726Z,32.68
2023-05-05T14:21:12.507Z,33.35
2023-05-05T14:22:38.387Z,32.86
2023-05-05T14:23:59.995Z,32.85
2023-05-05T14:25:24.673Z,33.15
2023-05-05T14:26:48.952Z,32.46
2023-05-05T14:28:11.528Z,32.37
2023-05-05T14:29:35.291Z,31.67
2023-05-05T14:30:57.198Z,33.26
2023-05-05T14:32:27.235Z,32.67
2023-05-05T14:33:56.571Z,32.69
2023-05-05T14:35:18.645Z,32.96
2023-05-05T14:36:41.149Z,32.15
2023-05-05T14:38:07.536Z,31.05
2023-05-05T14:39:31.888Z,31.36
2023-05-05T14:40:55.838Z,32.19
2023-05-05T14:42:17.882Z,32.16
2023-05-05T14:43:51.298Z,32.46
2023-05-05T14:45:21.189Z,32.88
2023-05-05T14:46:54.338Z,33.54
2023-05-05T14:48:16.661Z,33.75
2023-05-05T14:49:38.620Z,34.31
2023-05-05T14:51:02.999Z,35.13
2023-05-05T14:52:24.897Z,35.42
2023-05-05T14:53:58.506Z,35.67
2023-05-05T14:55:24.873Z,36.05
2023-05-05T14:56:46.982Z,36.35
2023-05-05T14:58:09.217Z,37.21
2023-05-05T14:59:33.556Z,37.74
2023-05-05T15:01:02.425Z,37.93
2023-05-05T15:02:24.509Z,37.76
2023-05-05T15:03:46.233Z,37.23
2023-05-05T15:05:08.418Z,38.14
2023-05-05T15:06:31.146Z,37.87
2023-05-05T15:07:52.517Z,38.41
2023-05-05T15:09:26.216Z,38.64
2023-05-05T15:10:48.108Z,38.30
2023-05-05T15:12:12.328Z,38.37
2023-05-05T15:13:45.935Z,38.28
2023-05-05T15:15:08.954Z,37.97
2023-05-05T15:16:31.719Z,38.33
2023-05-05T15:17:54.211Z,38.34
2023-05-05T15:19:27.713Z,38.99
2023-05-05T15:20:49.241Z,38.45
2023-05-05T15:22:13.563Z,38.25
2023-05-05T15:23:44.946Z,37.74
2023-05-05T15:25:09.788Z,37.92
2023-05-05T15:26:34.511Z,37.62
2023-05-05T15:28:10.924Z,37.49
2023-05-05T15:29:32.523Z,37.09
2023-05-05T15:30:54.062Z,37.25
2023-05-05T15:32:16.089Z,37.02
2023-05-05T15:33:38.737Z,36.94
2023-05-05T15:35:00.221Z,37.08
2023-05-05T15:36:30.092Z,37.07
2023-05-05T15:37:54.161Z,36.99
2023-05-05T15:39:23.367Z,37.40
2023-05-05T15:40:50.344Z,37.31
2023-05-05T15:42:12.540Z,37.58
2023-05-05T15:43:34.260Z,37.65
2023-05-05T15:44:55.539Z,37.63
2023-05-05T15:46:17.532Z,37.63
2023-05-05T15:47:41.542Z,37.52
2023-05-05T15:49:03.163Z,37.49
2023-05-05T15:50:24.947Z,37.75
2023-05-05T15:51:48.011Z,37.89
2023-05-05T15:53:10.109Z,37.90
2023-05-05T15:54:38.852Z,38.22
2023-05-05T15:56:00.431Z,38.56
2023-05-05T15:57:24.528Z,38.71
2023-05-05T15:58:45.880Z,38.46
2023-05-05T16:00:07.892Z,39.10
2023-05-05T16:01:29.361Z,39.04
2023-05-05T16:02:53.205Z,38.65
2023-05-05T16:04:22.234Z,38.56
2023-05-05T16:05:44.183Z,38.70
2023-05-05T16:07:05.940Z,38.94
2023-05-05T16:08:27.813Z,39.42
2023-05-05T16:09:49.378Z,39.52
2023-05-05T16:11:19.460Z,39.75
2023-05-05T16:12:44.460Z,40.14
2023-05-05T16:14:18.522Z,40.68
2023-05-05T16:15:49.698Z,41.31
2023-05-05T16:17:11.692Z,41.44
2023-05-05T16:18:33.528Z,41.70
2023-05-05T16:20:02.702Z,41.90
2023-05-05T16:21:36.653Z,42.25
2023-05-05T16:22:58.089Z,42.63
2023-05-05T16:24:19.958Z,43.60
2023-05-05T16:25:41.734Z,43.73
2023-05-05T16:27:03.105Z,44.27
2023-05-05T16:28:24.806Z,44.39
2023-05-05T16:29:49.257Z,44.87
2023-05-05T16:31:11.267Z,44.77
2023-05-05T16:32:40.543Z,45.18
2023-05-05T16:34:02.219Z,45.12
2023-05-05T16:35:33.700Z,45.14
2023-05-05T16:36:56.635Z,45.55
2023-05-05T16:38:18.214Z,45.83
2023-05-05T16:39:41.166Z,46.25
2023-05-05T16:41:12.638Z,46.80
2023-05-05T16:42:34.351Z,47.19
2023-05-05T16:43:58.321Z,47.05
2023-05-05T16:45:22.525Z,46.96
2023-05-05T16:46:44.522Z,47.14
2023-05-05T16:48:08.889Z,47.43
2023-05-05T16:49:31.247Z,47.63
2023-05-05T16:50:52.719Z,47.90
2023-05-05T16:52:14.744Z,47.89
2023-05-05T16:53:40.601Z,48.26
2023-05-05T16:55:04.851Z,48.41
2023-05-05T16:56:26.498Z,48.65
2023-05-05T16:57:50.444Z,48.57
2023-05-05T16:59:12.928Z,48.93
2023-05-05T17:00:54.439Z,49.47
2023-05-05T17:02:35.499Z,49.34
2023-05-05T17:04:20.112Z,49.55
2023-05-05T17:05:41.927Z,49.75
2023-05-05T17:07:03.380Z,50.00
2023-05-05T17:08:25.240Z,50.07
2023-05-05T17:09:47.270Z,50.24
2023-05-05T17:11:10.977Z,50.40
2023-05-05T17:12:33.252Z,50.53
2023-05-05T17:14:06.873Z,50.77
2023-05-05T17:15:30.835Z,50.75
2023-05-05T17:16:54.276Z,50.93
2023-05-05T17:18:16.446Z,50.98
2023-05-05T17:19:38.363Z,51.21
2023-05-05T17:21:07.776Z,51.27
2023-05-05T17:22:29.792Z,51.43
2023-05-05T17:23:53.311Z,51.93
2023-05-05T17:25:15.458Z,52.38
2023-05-05T17:26:38.776Z,52.74
2023-05-05T17:28:00.248Z,53.13
2023-05-05T17:29:23.301Z,53.37
2023-05-05T17:30:45.112Z,53.61
2023-05-05T17:32:06.927Z,54.15
2023-05-05T17:33:28.791Z,54.16
2023-05-05T17:34:50.658Z,54.23
2023-05-05T17:36:12.816Z,54.44
2023-05-05T17:37:41.927Z,54.78
2023-05-05T17:39:15.179Z,54.79
2023-05-05T17:40:39.756Z,55.16
2023-05-05T17:42:01.213Z,55.01
2023-05-05T17:43:22.968Z,55.34
2023-05-05T17:44:46.358Z,55.44
2023-05-05T17:46:09.461Z,55.59
2023-05-05T17:47:31.516Z,55.56
2023-05-05T17:49:00.850Z,55.65
2023-05-05T17:50:22.747Z,55.73
2023-05-05T17:51:44.257Z,56.20
2023-05-05T17:53:05.884Z,56.11
2023-05-05T17:54:27.980Z,56.18
2023-05-05T17:55:49.652Z,56.58
2023-05-05T17:57:23.438Z,56.32
2023-05-05T17:58:44.956Z,56.76
2023-05-05T18:00:08.994Z,56.94
2023-05-05T18:01:36.758Z,57.39
2023-05-05T18:02:57.951Z,57.08
2023-05-05T18:04:19.877Z,57.54
2023-05-05T18:05:44.025Z,57.61
2023-05-05T18:07:08.437Z,57.70
2023-05-05T18:08:30.865Z,57.97
2023-05-05T18:09:55.253Z,58.04
2023-05-05T18:11:28.766Z,58.05
2023-05-05T18:12:50.735Z,58.03
2023-05-05T18:14:24.502Z,58.18
2023-05-05T18:15:46.524Z,58.46
2023-05-05T18:17:08.123Z,57.98